Time;durP1;ratioP1;P1;durP2;ratioP2;P2;SDS_P1;SDS_P2;PMS_P1;PMS_P2;Temp;Humidity;BMP_temperature;BMP_pressure;BME280_temperature;BME280_humidity;BME280_pressure;Samples;Min_cycle;Max_cycle;Signal;HPM_P1;HPM_P2
2023/05/11 00:02:21;;;;;;;2.07;1.07;;;;;;;;;;5062726;28;20200;-78
2023/05/11 00:04:46;;;;;;;0.83;0.80;;;;;;;;;;5064076;28;20194;-78
2023/05/11 00:07:11;;;;;;;1.10;1.00;;;;;;;;;;5060306;28;20183;-78
2023/05/11 00:09:37;;;;;;;1.90;1.13;;;;;;;;;;5063310;28;20192;-78
2023/05/11 00:12:03;;;;;;;1.23;1.13;;;;;;;;;;5067279;28;20189;-78
2023/05/11 00:14:28;;;;;;;1.27;1.17;;;;;;;;;;5058715;28;20207;-79
2023/05/11 00:16:53;;;;;;;0.90;0.90;;;;;;;;;;5060136;28;20185;-76
2023/05/11 00:19:18;;;;;;;1.23;1.00;;;;;;;;;;5068579;28;20191;-76
2023/05/11 00:21:43;;;;;;;2.80;1.40;;;;;;;;;;5066600;28;20190;-76
2023/05/11 00:24:09;;;;;;;2.10;0.87;;;;;;;;;;5060927;28;20181;-76
2023/05/11 00:26:34;;;;;;;0.70;0.70;;;;;;;;;;5057791;28;20177;-76
2023/05/11 00:28:59;;;;;;;2.77;1.20;;;;;;;;;;5062680;28;20203;-76
2023/05/11 00:31:25;;;;;;;1.73;1.20;;;;;;;;;;5059235;28;20206;-76
2023/05/11 00:33:50;;;;;;;1.33;0.93;;;;;;;;;;5047003;28;20241;-76
2023/05/11 00:36:15;;;;;;;1.83;1.00;;;;;;;;;;5020846;28;20294;-79
2023/05/11 00:38:41;;;;;;;1.10;1.10;;;;;;;;;;5025300;28;20183;-78
2023/05/11 00:41:07;;;;;;;1.67;1.27;;;;;;;;;;5042746;28;20231;-76
2023/05/11 00:43:32;;;;;;;1.33;1.23;;;;;;;;;;5029469;28;20236;-78
2023/05/11 00:45:57;;;;;;;1.30;1.20;;;;;;;;;;5024257;28;20312;-79
2023/05/11 00:48:22;;;;;;;1.30;1.23;;;;;;;;;;5019589;28;20177;-78
2023/05/11 00:50:48;;;;;;;1.47;1.37;;;;;;;;;;5039139;28;20171;-78
2023/05/11 00:53:13;;;;;;;1.87;1.50;;;;;;;;;;5019125;28;20185;-79
2023/05/11 00:55:38;;;;;;;2.23;1.47;;;;;;;;;;5027792;28;20207;-78
2023/05/11 00:58:06;;;;;;;3.63;1.30;;;;;;;;;;5042184;28;20173;-79
2023/05/11 01:00:32;;;;;;;1.90;1.70;;;;;;;;;;5016749;28;20282;-79
2023/05/11 01:02:58;;;;;;;2.03;1.93;;;;;;;;;;5026714;28;20232;-79
2023/05/11 01:05:28;;;;;;;1.80;1.70;;;;;;;;;;5044633;28;20171;-79
2023/05/11 01:08:04;;;;;;;2.73;2.53;;;;;;;;;;5023878;28;20183;-78
2023/05/11 01:10:29;;;;;;;2.00;1.90;;;;;;;;;;5022854;28;20190;-78
2023/05/11 01:12:57;;;;;;;1.70;1.60;;;;;;;;;;5021689;28;20180;-78
2023/05/11 01:15:36;;;;;;;3.40;1.90;;;;;;;;;;5019826;28;20240;-78
2023/05/11 01:18:01;;;;;;;4.73;2.60;;;;;;;;;;5036660;28;20176;-78
2023/05/11 01:20:28;;;;;;;2.30;2.10;;;;;;;;;;5023587;28;20189;-79
2023/05/11 01:23:05;;;;;;;2.30;2.10;;;;;;;;;;5043464;28;20208;-79
2023/05/11 01:25:50;;;;;;;2.57;2.37;;;;;;;;;;5038676;28;20220;-78
2023/05/11 01:28:34;;;;;;;2.67;2.47;;;;;;;;;;5044205;28;20173;-78
2023/05/11 01:31:09;;;;;;;3.13;2.43;;;;;;;;;;5020984;28;20193;-78
2023/05/11 01:33:36;;;;;;;3.33;2.27;;;;;;;;;;5043738;28;20230;-76
2023/05/11 01:36:06;;;;;;;2.27;2.07;;;;;;;;;;5061497;28;20348;-76
2023/05/11 01:38:33;;;;;;;2.70;2.50;;;;;;;;;;5050190;28;20267;-76
2023/05/11 01:40:59;;;;;;;2.47;2.27;;;;;;;;;;5059678;28;20190;-76
2023/05/11 01:43:26;;;;;;;2.57;2.17;;;;;;;;;;5057362;28;20183;-76
2023/05/11 01:45:52;;;;;;;2.30;2.10;;;;;;;;;;5056682;28;20190;-76
2023/05/11 01:48:27;;;;;;;2.87;2.30;;;;;;;;;;5056993;28;20192;-76
2023/05/11 01:50:56;;;;;;;3.03;1.97;;;;;;;;;;5060787;28;20190;-76
2023/05/11 01:53:22;;;;;;;2.10;2.00;;;;;;;;;;5064435;28;20176;-76
2023/05/11 01:55:48;;;;;;;1.90;1.80;;;;;;;;;;5053137;28;20209;-76
2023/05/11 01:58:15;;;;;;;1.70;1.60;;;;;;;;;;5058085;28;20179;-77
2023/05/11 02:00:42;;;;;;;1.60;1.50;;;;;;;;;;5056515;28;20185;-76
2023/05/11 02:03:08;;;;;;;1.80;1.70;;;;;;;;;;5049825;28;20197;-76
2023/05/11 02:05:33;;;;;;;2.17;1.97;;;;;;;;;;5066254;28;20238;-76
2023/05/11 02:08:00;;;;;;;2.97;1.87;;;;;;;;;;5059229;28;20210;-76
2023/05/11 02:10:25;;;;;;;2.40;1.60;;;;;;;;;;5050556;28;20303;-75
2023/05/11 02:12:51;;;;;;;1.90;1.80;;;;;;;;;;5059105;28;20275;-76
2023/05/11 02:15:18;;;;;;;2.03;1.60;;;;;;;;;;5067138;28;20257;-76
2023/05/11 02:17:43;;;;;;;1.83;1.60;;;;;;;;;;5057686;28;20188;-76
2023/05/11 02:20:10;;;;;;;2.23;1.80;;;;;;;;;;5054866;28;20219;-76
2023/05/11 02:22:35;;;;;;;2.20;1.70;;;;;;;;;;5050393;28;20195;-76
2023/05/11 02:25:01;;;;;;;1.67;1.57;;;;;;;;;;5055474;28;20280;-76
2023/05/11 02:27:26;;;;;;;2.13;1.70;;;;;;;;;;5058134;28;20233;-76
2023/05/11 02:29:52;;;;;;;2.60;1.63;;;;;;;;;;5055366;28;20283;-76
2023/05/11 02:32:18;;;;;;;1.63;1.53;;;;;;;;;;5062933;28;20184;-76
2023/05/11 02:34:49;;;;;;;1.77;1.57;;;;;;;;;;5035930;28;20217;-76
2023/05/11 02:37:19;;;;;;;2.10;1.90;;;;;;;;;;5035940;28;20178;-76
2023/05/11 02:39:49;;;;;;;2.63;1.70;;;;;;;;;;5039275;28;20188;-76
2023/05/11 02:42:17;;;;;;;1.73;1.60;;;;;;;;;;5025282;28;20177;-76
2023/05/11 02:45:02;;;;;;;2.10;1.50;;;;;;;;;;5045022;28;20214;-76
2023/05/11 02:47:29;;;;;;;2.00;1.80;;;;;;;;;;5024850;28;20238;-76
2023/05/11 02:49:56;;;;;;;5.20;1.90;;;;;;;;;;5036654;28;20188;-76
2023/05/11 02:52:22;;;;;;;2.00;1.73;;;;;;;;;;5028914;28;20193;-76
2023/05/11 02:54:49;;;;;;;2.90;1.90;;;;;;;;;;5037963;28;20208;-76
2023/05/11 02:57:14;;;;;;;2.33;2.13;;;;;;;;;;5037734;28;20211;-76
2023/05/11 02:59:39;;;;;;;1.60;1.50;;;;;;;;;;5026537;28;20274;-76
2023/05/11 03:02:05;;;;;;;2.13;1.93;;;;;;;;;;5024739;28;20295;-76
2023/05/11 03:04:30;;;;;;;3.20;2.47;;;;;;;;;;5030824;28;20176;-76
2023/05/11 03:06:55;;;;;;;1.80;1.70;;;;;;;;;;5020313;28;20266;-76
2023/05/11 03:09:20;;;;;;;2.03;1.83;;;;;;;;;;5028164;28;20259;-76
2023/05/11 03:11:45;;;;;;;2.40;2.20;;;;;;;;;;5047789;28;20191;-76
2023/05/11 03:14:12;;;;;;;3.43;2.37;;;;;;;;;;5022093;28;20181;-78
2023/05/11 03:16:37;;;;;;;4.17;2.40;;;;;;;;;;5040178;28;20183;-78
2023/05/11 03:19:04;;;;;;;1.90;1.80;;;;;;;;;;5039121;28;20170;-78
2023/05/11 03:21:31;;;;;;;4.27;1.90;;;;;;;;;;5043804;28;20174;-77
2023/05/11 03:23:56;;;;;;;2.10;1.90;;;;;;;;;;5020349;28;20250;-78
2023/05/11 03:26:22;;;;;;;4.17;3.43;;;;;;;;;;5029744;28;20200;-78
2023/05/11 03:28:49;;;;;;;2.67;2.40;;;;;;;;;;5024369;28;20184;-77
2023/05/11 03:31:15;;;;;;;3.07;2.43;;;;;;;;;;5045278;28;20260;-77
2023/05/11 03:33:40;;;;;;;4.00;2.40;;;;;;;;;;5046971;28;20306;-77
2023/05/11 03:36:07;;;;;;;2.60;1.70;;;;;;;;;;5064732;28;20204;-78
2023/05/11 03:38:33;;;;;;;2.43;2.13;;;;;;;;;;5060036;28;20222;-78
2023/05/11 03:40:59;;;;;;;2.77;1.60;;;;;;;;;;5061303;28;20185;-78
2023/05/11 03:43:27;;;;;;;3.27;2.00;;;;;;;;;;5059793;28;20186;-78
2023/05/11 03:45:52;;;;;;;1.90;1.70;;;;;;;;;;5062366;28;20190;-78
2023/05/11 03:48:18;;;;;;;4.23;2.47;;;;;;;;;;5059309;28;20195;-77
2023/05/11 03:50:44;;;;;;;2.17;1.97;;;;;;;;;;5061375;28;20185;-76
2023/05/11 03:53:09;;;;;;;3.20;2.20;;;;;;;;;;5065747;28;20187;-77
2023/05/11 03:55:34;;;;;;;4.27;2.60;;;;;;;;;;5068957;28;20246;-77
2023/05/11 03:58:00;;;;;;;2.67;2.07;;;;;;;;;;5057242;28;20184;-77
2023/05/11 04:00:25;;;;;;;2.37;2.17;;;;;;;;;;5066980;28;20174;-77
2023/05/11 04:02:50;;;;;;;3.67;2.80;;;;;;;;;;5065485;28;20215;-77
2023/05/11 04:05:17;;;;;;;2.80;2.13;;;;;;;;;;5059488;28;20185;-78
2023/05/11 04:07:42;;;;;;;2.47;2.13;;;;;;;;;;5056606;28;20191;-78
2023/05/11 04:10:08;;;;;;;3.40;2.20;;;;;;;;;;5053085;28;20196;-78
2023/05/11 04:12:33;;;;;;;2.20;2.00;;;;;;;;;;5059234;28;20191;-78
2023/05/11 04:14:58;;;;;;;2.77;2.13;;;;;;;;;;5056226;28;20290;-78
2023/05/11 04:17:23;;;;;;;4.90;2.83;;;;;;;;;;5057451;28;20270;-77
2023/05/11 04:19:49;;;;;;;1.90;1.80;;;;;;;;;;5064042;28;20264;-78
2023/05/11 04:22:14;;;;;;;2.33;2.00;;;;;;;;;;5060826;28;20265;-77
2023/05/11 04:24:39;;;;;;;2.37;2.17;;;;;;;;;;5056977;28;20176;-77
2023/05/11 04:27:04;;;;;;;2.33;1.93;;;;;;;;;;5064699;28;20175;-78
2023/05/11 04:29:30;;;;;;;3.83;2.10;;;;;;;;;;5067508;28;20271;-78
2023/05/11 04:31:55;;;;;;;1.70;1.60;;;;;;;;;;5057007;28;20172;-77
2023/05/11 04:34:21;;;;;;;3.30;2.10;;;;;;;;;;5061634;28;20235;-77
2023/05/11 04:36:47;;;;;;;2.23;2.03;;;;;;;;;;5059564;28;20195;-78
2023/05/11 04:39:12;;;;;;;2.50;2.30;;;;;;;;;;5059318;28;20177;-78
2023/05/11 04:41:37;;;;;;;2.37;2.10;;;;;;;;;;5055358;28;20186;-78
2023/05/11 04:44:03;;;;;;;2.20;2.07;;;;;;;;;;5061793;28;20249;-77
2023/05/11 04:46:28;;;;;;;2.80;2.33;;;;;;;;;;5052303;28;20216;-78
2023/05/11 04:48:53;;;;;;;10.87;9.33;;;;;;;;;;5062550;28;20270;-78
2023/05/11 04:51:18;;;;;;;6.00;5.40;;;;;;;;;;5051814;28;20184;-78
2023/05/11 04:53:44;;;;;;;3.43;2.30;;;;;;;;;;5052792;28;20196;-78
2023/05/11 04:56:09;;;;;;;3.33;3.03;;;;;;;;;;5081346;28;20216;-78
2023/05/11 04:58:34;;;;;;;2.20;2.10;;;;;;;;;;5059425;28;20175;-78
2023/05/11 05:01:00;;;;;;;2.30;2.10;;;;;;;;;;5055273;28;20188;-77
2023/05/11 05:03:25;;;;;;;2.13;2.03;;;;;;;;;;5063496;28;20196;-78
2023/05/11 05:05:50;;;;;;;2.13;1.90;;;;;;;;;;5061020;28;20267;-78
2023/05/11 05:08:17;;;;;;;2.43;2.23;;;;;;;;;;5065687;28;20180;-78
2023/05/11 05:10:42;;;;;;;2.13;1.97;;;;;;;;;;5058285;28;20202;-77
2023/05/11 05:13:07;;;;;;;2.53;2.33;;;;;;;;;;5064740;28;20180;-78
2023/05/11 05:15:33;;;;;;;2.83;2.20;;;;;;;;;;5056440;28;20199;-78
2023/05/11 05:17:58;;;;;;;2.40;1.87;;;;;;;;;;5055831;28;20195;-77
2023/05/11 05:20:23;;;;;;;4.67;2.60;;;;;;;;;;5052267;28;20183;-78
2023/05/11 05:22:48;;;;;;;3.37;3.13;;;;;;;;;;5065177;28;20187;-78
2023/05/11 05:25:14;;;;;;;2.00;1.80;;;;;;;;;;5054257;28;20188;-77
2023/05/11 05:27:39;;;;;;;6.43;3.50;;;;;;;;;;5057952;28;20188;-77
2023/05/11 05:30:05;;;;;;;2.53;2.10;;;;;;;;;;5061235;28;20208;-78
2023/05/11 05:32:30;;;;;;;4.37;2.57;;;;;;;;;;5061544;28;20223;-78
2023/05/11 05:34:56;;;;;;;6.10;2.00;;;;;;;;;;5007666;28;20240;-77
2023/05/11 05:37:22;;;;;;;4.10;2.43;;;;;;;;;;5019158;28;20185;-77
2023/05/11 05:39:47;;;;;;;2.83;2.63;;;;;;;;;;5021569;28;20183;-78
2023/05/11 05:42:12;;;;;;;3.30;3.00;;;;;;;;;;5042570;28;20225;-77
2023/05/11 05:44:38;;;;;;;3.43;2.77;;;;;;;;;;5041050;28;20376;-78
2023/05/11 05:47:03;;;;;;;6.93;2.40;;;;;;;;;;5017131;28;20270;-78
2023/05/11 05:49:29;;;;;;;3.70;3.07;;;;;;;;;;5023333;28;20195;-78
2023/05/11 05:51:54;;;;;;;4.63;3.20;;;;;;;;;;5038871;28;20184;-78
2023/05/11 05:54:20;;;;;;;2.97;2.77;;;;;;;;;;5031165;28;20178;-78
2023/05/11 05:56:45;;;;;;;2.83;2.53;;;;;;;;;;5018963;28;20175;-77
2023/05/11 05:59:12;;;;;;;3.10;2.80;;;;;;;;;;5044799;28;20174;-77
2023/05/11 06:01:40;;;;;;;5.23;4.33;;;;;;;;;;5022242;28;20188;-77
2023/05/11 06:04:05;;;;;;;2.93;2.73;;;;;;;;;;5015296;28;20193;-78
2023/05/11 06:06:30;;;;;;;4.40;2.90;;;;;;;;;;5021809;28;20197;-77
2023/05/11 06:08:55;;;;;;;4.80;2.90;;;;;;;;;;5026070;28;20279;-77
2023/05/11 06:11:21;;;;;;;4.17;2.90;;;;;;;;;;5019676;28;20340;-78
2023/05/11 06:13:46;;;;;;;3.80;3.37;;;;;;;;;;5017445;28;20184;-78
2023/05/11 06:16:11;;;;;;;3.73;3.43;;;;;;;;;;5023349;28;20213;-77
2023/05/11 06:18:37;;;;;;;3.70;3.40;;;;;;;;;;5030433;28;20183;-78
2023/05/11 06:21:02;;;;;;;3.33;3.13;;;;;;;;;;5044662;28;20181;-77
2023/05/11 06:23:27;;;;;;;3.17;2.77;;;;;;;;;;5025706;28;20174;-77
2023/05/11 06:25:52;;;;;;;5.67;3.27;;;;;;;;;;5045815;28;20183;-77
2023/05/11 06:28:18;;;;;;;5.27;2.80;;;;;;;;;;5041104;28;20176;-78
2023/05/11 06:30:43;;;;;;;3.27;2.97;;;;;;;;;;5030059;28;20179;-77
2023/05/11 06:33:08;;;;;;;2.93;2.70;;;;;;;;;;5039753;28;20218;-78
2023/05/11 06:35:35;;;;;;;2.67;2.47;;;;;;;;;;5066344;28;20219;-77
2023/05/11 06:38:00;;;;;;;3.50;2.67;;;;;;;;;;5064125;28;20183;-77
2023/05/11 06:40:25;;;;;;;4.00;3.03;;;;;;;;;;5065297;28;20179;-77
2023/05/11 06:42:50;;;;;;;2.97;2.77;;;;;;;;;;5060932;28;20176;-77
2023/05/11 06:45:16;;;;;;;3.03;2.83;;;;;;;;;;5067948;28;20175;-75
2023/05/11 06:47:41;;;;;;;3.10;2.80;;;;;;;;;;5060295;28;20190;-77
2023/05/11 06:50:06;;;;;;;2.90;2.70;;;;;;;;;;5071340;28;20181;-78
2023/05/11 06:52:31;;;;;;;3.83;3.10;;;;;;;;;;5063804;28;20184;-78
2023/05/11 06:54:57;;;;;;;2.50;2.20;;;;;;;;;;5069775;28;20206;-78
2023/05/11 06:57:22;;;;;;;3.07;2.53;;;;;;;;;;5065145;28;20178;-77
2023/05/11 06:59:47;;;;;;;3.33;2.73;;;;;;;;;;5057359;28;20171;-78
2023/05/11 07:02:13;;;;;;;2.73;2.33;;;;;;;;;;5067944;28;20265;-77
2023/05/11 07:04:38;;;;;;;2.73;2.40;;;;;;;;;;5066278;28;20195;-77
2023/05/11 07:07:03;;;;;;;2.43;2.23;;;;;;;;;;5061776;28;20211;-77
2023/05/11 07:09:28;;;;;;;4.60;2.47;;;;;;;;;;5059735;28;20212;-78
2023/05/11 07:11:54;;;;;;;3.17;2.90;;;;;;;;;;5067099;28;20208;-77
2023/05/11 07:14:19;;;;;;;3.93;2.47;;;;;;;;;;5057726;28;20190;-78
2023/05/11 07:16:45;;;;;;;2.40;2.20;;;;;;;;;;5058487;28;20241;-78
2023/05/11 07:19:10;;;;;;;3.67;2.20;;;;;;;;;;5076676;28;20189;-78
2023/05/11 07:21:36;;;;;;;2.83;2.50;;;;;;;;;;5059372;28;20259;-78
2023/05/11 07:24:01;;;;;;;2.57;2.17;;;;;;;;;;5062534;28;20266;-78
2023/05/11 07:26:27;;;;;;;2.63;2.10;;;;;;;;;;5071992;28;20170;-78
2023/05/11 07:28:52;;;;;;;2.73;2.53;;;;;;;;;;5063408;28;20175;-78
2023/05/11 07:31:17;;;;;;;3.23;2.60;;;;;;;;;;5066674;28;20176;-78
2023/05/11 07:33:43;;;;;;;3.17;2.70;;;;;;;;;;5060147;28;20216;-78
2023/05/11 07:36:08;;;;;;;2.40;2.20;;;;;;;;;;5074880;28;20207;-78
2023/05/11 07:38:33;;;;;;;2.37;2.17;;;;;;;;;;5061440;28;20174;-78
2023/05/11 07:40:58;;;;;;;3.03;2.20;;;;;;;;;;5082639;28;20269;-78
2023/05/11 07:43:24;;;;;;;2.60;2.30;;;;;;;;;;5052111;28;20173;-78
2023/05/11 07:45:49;;;;;;;2.50;2.23;;;;;;;;;;5055770;28;20192;-78
2023/05/11 07:48:15;;;;;;;2.47;2.27;;;;;;;;;;5063039;28;20176;-78
2023/05/11 07:50:41;;;;;;;3.10;2.37;;;;;;;;;;5071505;28;20204;-78
2023/05/11 07:53:06;;;;;;;3.50;2.13;;;;;;;;;;5052655;28;20173;-78
2023/05/11 07:55:32;;;;;;;1.80;1.70;;;;;;;;;;5070398;28;20211;-78
2023/05/11 07:57:57;;;;;;;2.00;1.73;;;;;;;;;;5062048;28;20184;-78
2023/05/11 08:00:22;;;;;;;2.63;1.90;;;;;;;;;;5067890;28;20176;-78
2023/05/11 08:02:47;;;;;;;2.30;2.10;;;;;;;;;;5061342;28;20223;-78
2023/05/11 08:05:13;;;;;;;2.10;1.90;;;;;;;;;;5059875;28;20203;-78
2023/05/11 08:07:38;;;;;;;2.07;1.77;;;;;;;;;;5069930;28;20230;-79
2023/05/11 08:10:03;;;;;;;2.10;2.00;;;;;;;;;;5065939;28;20173;-78
2023/05/11 08:12:29;;;;;;;2.00;1.80;;;;;;;;;;5061527;28;20189;-79
2023/05/11 08:14:54;;;;;;;2.00;1.80;;;;;;;;;;5059693;28;20309;-79
2023/05/11 08:17:20;;;;;;;2.07;1.80;;;;;;;;;;5053705;28;20170;-78
2023/05/11 08:19:45;;;;;;;2.10;2.00;;;;;;;;;;5059989;28;20180;-79
2023/05/11 08:22:10;;;;;;;1.70;1.60;;;;;;;;;;5063001;28;20177;-79
2023/05/11 08:24:35;;;;;;;1.90;1.50;;;;;;;;;;5063246;28;20177;-79
2023/05/11 08:27:01;;;;;;;1.73;1.57;;;;;;;;;;5072019;28;20217;-79
2023/05/11 08:29:26;;;;;;;1.77;1.50;;;;;;;;;;5053434;28;20265;-79
2023/05/11 08:31:52;;;;;;;3.77;2.13;;;;;;;;;;5055122;28;20173;-78
2023/05/11 08:34:17;;;;;;;2.30;1.60;;;;;;;;;;5028445;28;20241;-79
2023/05/11 08:36:43;;;;;;;2.07;1.50;;;;;;;;;;5022884;28;20237;-77
2023/05/11 08:39:08;;;;;;;2.27;1.87;;;;;;;;;;5015869;28;20182;-76
2023/05/11 08:41:33;;;;;;;1.40;1.30;;;;;;;;;;5014716;28;20262;-76
2023/05/11 08:43:59;;;;;;;2.57;1.57;;;;;;;;;;5027791;28;20181;-76
2023/05/11 08:46:27;;;;;;;1.50;1.40;;;;;;;;;;5035416;28;20178;-76
2023/05/11 08:48:52;;;;;;;1.87;1.73;;;;;;;;;;5047517;28;20185;-76
2023/05/11 08:51:17;;;;;;;1.57;1.47;;;;;;;;;;5023360;28;20179;-77
2023/05/11 08:53:43;;;;;;;1.83;1.53;;;;;;;;;;5032597;28;20185;-76
2023/05/11 08:56:09;;;;;;;3.63;1.70;;;;;;;;;;5020487;28;20250;-77
2023/05/11 08:58:36;;;;;;;1.63;1.40;;;;;;;;;;5039287;28;20170;-77
2023/05/11 09:01:02;;;;;;;1.50;1.40;;;;;;;;;;5018145;28;20228;-78
2023/05/11 09:03:28;;;;;;;1.60;1.50;;;;;;;;;;5017969;28;20198;-77
2023/05/11 09:05:54;;;;;;;2.00;1.37;;;;;;;;;;5017793;28;20189;-77
2023/05/11 09:08:21;;;;;;;1.50;1.40;;;;;;;;;;5025714;28;20217;-77
2023/05/11 09:10:47;;;;;;;1.40;1.30;;;;;;;;;;5029551;28;20185;-77
2023/05/11 09:13:13;;;;;;;1.63;1.53;;;;;;;;;;5021982;28;20180;-77
2023/05/11 09:15:38;;;;;;;1.30;1.20;;;;;;;;;;5017101;28;20201;-77
2023/05/11 09:18:03;;;;;;;1.40;1.30;;;;;;;;;;5029928;28;20206;-78
2023/05/11 09:20:31;;;;;;;1.60;1.30;;;;;;;;;;5028699;28;20178;-77
2023/05/11 09:22:57;;;;;;;1.50;1.40;;;;;;;;;;5027084;28;20174;-77
2023/05/11 09:25:22;;;;;;;1.57;1.40;;;;;;;;;;5038540;28;20185;-78
2023/05/11 09:27:48;;;;;;;1.60;1.50;;;;;;;;;;5021769;28;20249;-78
2023/05/11 09:30:14;;;;;;;1.57;1.47;;;;;;;;;;5029434;28;20178;-78
2023/05/11 09:32:52;;;;;;;1.50;1.40;;;;;;;;;;5043080;28;20209;-78
2023/05/11 09:35:21;;;;;;;1.90;1.50;;;;;;;;;;5018329;28;20197;-79
2023/05/11 09:37:56;;;;;;;2.13;1.40;;;;;;;;;;5021725;28;20188;-78
2023/05/11 09:40:21;;;;;;;1.70;1.60;;;;;;;;;;5020188;28;20183;-78
2023/05/11 09:42:47;;;;;;;1.80;1.70;;;;;;;;;;5014981;28;20181;-78
2023/05/11 09:45:12;;;;;;;2.60;1.67;;;;;;;;;;5026811;28;20175;-78
2023/05/11 09:47:38;;;;;;;2.10;1.90;;;;;;;;;;5031148;28;20247;-78
2023/05/11 09:50:30;;;;;;;1.93;1.60;;;;;;;;;;5013924;28;20200;-78
2023/05/11 09:52:56;;;;;;;2.07;1.50;;;;;;;;;;5019440;28;20279;-78
2023/05/11 09:55:21;;;;;;;2.20;2.00;;;;;;;;;;5027056;28;20284;-78
2023/05/11 09:57:51;;;;;;;1.87;1.77;;;;;;;;;;5034196;28;20189;-78
2023/05/11 10:00:17;;;;;;;1.80;1.70;;;;;;;;;;5017474;28;20247;-78
2023/05/11 10:02:42;;;;;;;2.00;1.80;;;;;;;;;;5026498;28;20278;-78
2023/05/11 10:05:12;;;;;;;1.93;1.80;;;;;;;;;;5025272;28;20237;-78
2023/05/11 10:07:38;;;;;;;1.83;1.73;;;;;;;;;;5016979;28;20240;-78
2023/05/11 10:10:05;;;;;;;1.80;1.70;;;;;;;;;;5043318;28;20182;-78
2023/05/11 10:12:32;;;;;;;2.07;1.87;;;;;;;;;;5028207;28;20254;-78
2023/05/11 10:15:08;;;;;;;2.70;2.10;;;;;;;;;;5026683;28;20193;-78
2023/05/11 10:17:34;;;;;;;2.27;1.40;;;;;;;;;;5017339;28;20189;-78
2023/05/11 10:19:59;;;;;;;3.77;2.60;;;;;;;;;;5041236;28;20189;-78
2023/05/11 10:22:26;;;;;;;1.60;1.50;;;;;;;;;;5019456;28;20221;-79
2023/05/11 10:24:51;;;;;;;2.80;1.60;;;;;;;;;;5034706;28;20190;-78
2023/05/11 10:27:17;;;;;;;1.77;1.67;;;;;;;;;;5032955;28;20170;-79
2023/05/11 10:29:43;;;;;;;1.70;1.60;;;;;;;;;;5024285;28;20270;-78
2023/05/11 10:32:09;;;;;;;3.30;2.10;;;;;;;;;;5031116;28;20176;-78
2023/05/11 10:34:35;;;;;;;1.80;1.70;;;;;;;;;;5053195;28;20229;-79
2023/05/11 10:37:01;;;;;;;2.30;2.10;;;;;;;;;;5057569;28;20180;-79
2023/05/11 10:39:27;;;;;;;1.90;1.80;;;;;;;;;;5082667;28;20173;-79
2023/05/11 10:42:03;;;;;;;2.20;1.90;;;;;;;;;;5053352;28;20178;-79
2023/05/11 10:44:39;;;;;;;2.80;1.93;;;;;;;;;;5056005;28;20240;-78
2023/05/11 10:47:23;;;;;;;2.17;1.90;;;;;;;;;;5068436;28;20195;-78
2023/05/11 10:49:51;;;;;;;1.83;1.70;;;;;;;;;;5057750;28;20182;-79
2023/05/11 10:52:35;;;;;;;1.70;1.60;;;;;;;;;;5068033;28;20171;-78
2023/05/11 10:55:09;;;;;;;2.77;1.80;;;;;;;;;;5053939;28;20201;-79
2023/05/11 10:57:40;;;;;;;3.30;2.10;;;;;;;;;;5059288;28;20183;-78
2023/05/11 11:00:29;;;;;;;2.00;1.90;;;;;;;;;;5060089;28;20182;-78
2023/05/11 11:02:56;;;;;;;2.10;1.90;;;;;;;;;;5065117;28;20252;-79
2023/05/11 11:05:33;;;;;;;2.10;1.90;;;;;;;;;;5057357;28;20216;-79
2023/05/11 11:08:02;;;;;;;2.00;1.80;;;;;;;;;;5070188;28;20244;-79
2023/05/11 11:10:31;;;;;;;4.73;2.00;;;;;;;;;;5065011;28;20190;-79
2023/05/11 11:13:00;;;;;;;4.23;2.20;;;;;;;;;;5066842;28;20182;-79
2023/05/11 11:15:45;;;;;;;2.73;2.23;;;;;;;;;;5053581;28;20309;-78
2023/05/11 11:18:27;;;;;;;1.97;1.87;;;;;;;;;;5067829;28;20175;-78
2023/05/11 11:20:53;;;;;;;2.60;2.10;;;;;;;;;;5061972;28;20218;-78
2023/05/11 11:23:37;;;;;;;2.53;2.10;;;;;;;;;;5056847;28;20192;-79
2023/05/11 11:26:03;;;;;;;3.60;1.97;;;;;;;;;;5070324;28;20233;-78
2023/05/11 11:28:48;;;;;;;3.50;2.73;;;;;;;;;;5071468;28;20191;-78
2023/05/11 11:31:26;;;;;;;4.40;3.00;;;;;;;;;;5053328;28;20187;-78
2023/05/11 11:33:52;;;;;;;3.17;2.97;;;;;;;;;;5049424;28;20228;-78
2023/05/11 11:36:17;;;;;;;3.43;2.37;;;;;;;;;;5023657;28;20214;-78
2023/05/11 11:39:01;;;;;;;2.50;1.90;;;;;;;;;;5026812;28;20185;-78
2023/05/11 11:41:28;;;;;;;1.77;1.67;;;;;;;;;;5021306;28;20190;-79
2023/05/11 11:43:54;;;;;;;1.90;1.80;;;;;;;;;;5050594;28;20210;-78
2023/05/11 11:46:26;;;;;;;2.30;2.20;;;;;;;;;;5028228;28;20181;-78
2023/05/11 11:49:10;;;;;;;2.00;1.80;;;;;;;;;;5026935;28;20207;-79
2023/05/11 11:51:39;;;;;;;2.20;2.10;;;;;;;;;;5038673;28;20182;-78
2023/05/11 11:54:04;;;;;;;5.03;2.37;;;;;;;;;;5029721;28;20172;-78
2023/05/11 11:56:29;;;;;;;3.10;1.77;;;;;;;;;;5025179;28;20204;-78
2023/05/11 11:58:55;;;;;;;2.00;1.90;;;;;;;;;;5026305;28;20184;-78
2023/05/11 12:01:22;;;;;;;2.83;1.97;;;;;;;;;;5037643;28;20205;-78
2023/05/11 12:04:05;;;;;;;1.87;1.67;;;;;;;;;;5041525;28;20228;-78
2023/05/11 12:06:35;;;;;;;1.90;1.80;;;;;;;;;;5023798;28;20219;-78
2023/05/11 12:09:01;;;;;;;2.27;1.53;;;;;;;;;;5020674;28;20197;-79
2023/05/11 12:11:28;;;;;;;2.63;1.50;;;;;;;;;;5026465;28;20172;-79
2023/05/11 12:13:53;;;;;;;2.10;1.90;;;;;;;;;;5030936;28;20180;-78
2023/05/11 12:16:18;;;;;;;1.97;1.77;;;;;;;;;;5038874;28;20213;-78
2023/05/11 12:18:54;;;;;;;3.90;2.10;;;;;;;;;;5024317;28;20235;-78
2023/05/11 12:21:20;;;;;;;2.83;2.17;;;;;;;;;;5046092;28;20229;-78
2023/05/11 12:23:54;;;;;;;3.43;2.53;;;;;;;;;;5034258;28;20260;-78
2023/05/11 12:26:23;;;;;;;2.83;2.30;;;;;;;;;;5032928;28;20189;-78
2023/05/11 12:28:49;;;;;;;2.40;2.00;;;;;;;;;;5029617;28;20182;-78
2023/05/11 12:31:16;;;;;;;4.20;2.40;;;;;;;;;;5034384;28;20174;-78
2023/05/11 12:33:48;;;;;;;2.30;2.10;;;;;;;;;;5041593;28;20248;-78
2023/05/11 12:36:14;;;;;;;2.70;2.20;;;;;;;;;;5027902;28;20198;-78
2023/05/11 12:38:43;;;;;;;2.53;2.30;;;;;;;;;;5019729;28;20185;-78
2023/05/11 12:41:09;;;;;;;2.10;1.93;;;;;;;;;;5024407;28;20173;-79
2023/05/11 12:43:34;;;;;;;4.50;2.40;;;;;;;;;;5041885;28;20350;-78
2023/05/11 12:46:00;;;;;;;2.37;2.17;;;;;;;;;;5045065;28;20253;-79
2023/05/11 12:48:25;;;;;;;3.73;2.03;;;;;;;;;;5019804;28;20182;-79
2023/05/11 12:50:50;;;;;;;2.90;2.60;;;;;;;;;;5043224;28;20193;-79
2023/05/11 12:53:18;;;;;;;11.03;10.23;;;;;;;;;;5026710;28;20221;-78
2023/05/11 12:55:55;;;;;;;3.10;2.80;;;;;;;;;;5043685;28;20198;-79
2023/05/11 12:58:20;;;;;;;1.97;1.83;;;;;;;;;;5030301;28;20298;-79
2023/05/11 13:00:56;;;;;;;3.03;1.80;;;;;;;;;;5019651;28;20268;-79
2023/05/11 13:03:25;;;;;;;2.40;2.20;;;;;;;;;;5042373;28;20226;-79
2023/05/11 13:05:51;;;;;;;3.07;2.00;;;;;;;;;;5020789;28;20259;-78
2023/05/11 13:08:18;;;;;;;3.17;2.00;;;;;;;;;;5015940;28;20207;-78
2023/05/11 13:10:43;;;;;;;2.60;2.13;;;;;;;;;;5022579;28;20184;-79
2023/05/11 13:13:08;;;;;;;2.00;1.80;;;;;;;;;;5021379;28;20216;-79
2023/05/11 13:15:48;;;;;;;2.00;1.90;;;;;;;;;;5027418;28;20255;-79
2023/05/11 13:18:15;;;;;;;2.67;2.07;;;;;;;;;;5020373;28;20173;-79
2023/05/11 13:20:42;;;;;;;2.77;2.17;;;;;;;;;;5036946;28;20262;-79
2023/05/11 13:23:08;;;;;;;2.27;2.07;;;;;;;;;;5026293;28;20180;-79
2023/05/11 13:25:34;;;;;;;2.40;2.20;;;;;;;;;;5024845;28;20230;-79
2023/05/11 13:28:00;;;;;;;4.43;2.20;;;;;;;;;;5045567;28;20172;-79
2023/05/11 13:30:26;;;;;;;2.30;2.10;;;;;;;;;;5022714;28;20188;-79
2023/05/11 13:32:51;;;;;;;3.30;2.50;;;;;;;;;;5045474;28;20230;-79
2023/05/11 13:35:16;;;;;;;3.57;2.90;;;;;;;;;;5023194;28;20221;-79
2023/05/11 13:37:41;;;;;;;3.60;2.80;;;;;;;;;;5034715;28;20178;-78
2023/05/11 13:40:09;;;;;;;2.83;2.63;;;;;;;;;;5025110;28;20262;-79
2023/05/11 13:42:37;;;;;;;3.23;2.03;;;;;;;;;;5049701;28;20218;-79
2023/05/11 13:45:03;;;;;;;2.67;2.43;;;;;;;;;;5023252;28;20200;-79
2023/05/11 13:47:28;;;;;;;2.33;2.13;;;;;;;;;;5043183;28;20242;-79
2023/05/11 13:49:54;;;;;;;4.93;2.27;;;;;;;;;;5026532;28;20186;-79
2023/05/11 13:52:20;;;;;;;2.10;1.90;;;;;;;;;;5019087;28;20182;-79
2023/05/11 13:54:45;;;;;;;2.73;2.50;;;;;;;;;;5020556;28;20187;-79
2023/05/11 13:57:10;;;;;;;2.93;1.87;;;;;;;;;;5027592;28;20214;-79
2023/05/11 13:59:36;;;;;;;3.43;1.90;;;;;;;;;;5017978;28;20260;-79
2023/05/11 14:02:01;;;;;;;2.43;2.20;;;;;;;;;;5045260;28;20177;-79
2023/05/11 14:04:26;;;;;;;2.57;2.20;;;;;;;;;;5028150;28;20186;-78
2023/05/11 14:06:52;;;;;;;2.50;2.30;;;;;;;;;;5015447;28;20185;-79
2023/05/11 14:09:17;;;;;;;2.63;1.93;;;;;;;;;;5035246;28;20209;-79
2023/05/11 14:11:42;;;;;;;4.80;2.40;;;;;;;;;;5017556;28;20233;-79
2023/05/11 14:14:07;;;;;;;2.33;2.13;;;;;;;;;;5023456;28;20210;-79
2023/05/11 14:16:32;;;;;;;2.13;2.03;;;;;;;;;;5021546;28;20215;-79
2023/05/11 14:18:58;;;;;;;4.00;2.00;;;;;;;;;;5026174;28;20187;-79
2023/05/11 14:21:23;;;;;;;2.43;2.23;;;;;;;;;;5020521;28;20179;-79
2023/05/11 14:23:48;;;;;;;2.43;2.23;;;;;;;;;;5019639;28;20280;-79
2023/05/11 14:26:13;;;;;;;3.83;2.20;;;;;;;;;;5035979;28;20203;-79
2023/05/11 14:28:38;;;;;;;2.37;2.17;;;;;;;;;;5038887;28;20209;-79
2023/05/11 14:31:04;;;;;;;2.70;2.37;;;;;;;;;;5033877;28;20201;-79
2023/05/11 14:33:30;;;;;;;2.20;2.10;;;;;;;;;;5041088;28;20226;-79
2023/05/11 14:35:55;;;;;;;2.27;2.07;;;;;;;;;;5018414;28;20223;-79
2023/05/11 14:38:21;;;;;;;2.37;2.00;;;;;;;;;;5041367;28;20176;-79
2023/05/11 14:40:46;;;;;;;2.50;2.30;;;;;;;;;;5029165;28;20184;-79
2023/05/11 14:43:11;;;;;;;2.60;2.40;;;;;;;;;;5047968;28;20197;-79